createdAt,value
2023-02-27T00:00:24.544Z,1021.41
2023-02-27T00:01:25.136Z,1021.38
2023-02-27T00:02:25.160Z,1021.42
2023-02-27T00:03:25.437Z,1021.40
2023-02-27T00:04:25.721Z,1021.46
2023-02-27T00:05:26.036Z,1021.46
2023-02-27T00:06:26.346Z,1021.43
2023-02-27T00:07:26.657Z,1021.49
2023-02-27T00:08:26.998Z,1021.46
2023-02-27T00:09:27.189Z,1021.47
2023-02-27T00:10:27.517Z,1021.48
2023-02-27T00:11:28.206Z,1021.55
2023-02-27T00:12:28.099Z,1021.50
2023-02-27T00:13:28.385Z,1021.52
2023-02-27T00:14:36.181Z,1021.54
2023-02-27T00:15:28.991Z,1021.54
2023-02-27T00:16:29.375Z,1021.48
2023-02-27T00:17:29.548Z,1021.51
2023-02-27T00:18:29.817Z,1021.49
2023-02-27T00:19:30.124Z,1021.56
2023-02-27T00:20:30.527Z,1021.56
2023-02-27T00:21:30.735Z,1021.55
2023-02-27T00:22:31.021Z,1021.52
2023-02-27T00:23:31.337Z,1021.49
2023-02-27T00:24:31.642Z,1021.49
2023-02-27T00:25:31.958Z,1021.47
2023-02-27T00:26:32.258Z,1021.49
2023-02-27T00:27:32.606Z,1021.45
2023-02-27T00:28:32.886Z,1021.45
2023-02-27T00:29:33.189Z,1021.44
2023-02-27T00:30:33.510Z,1021.42
2023-02-27T00:31:33.830Z,1021.44
2023-02-27T00:32:34.161Z,1021.45
2023-02-27T00:33:34.437Z,1021.45
2023-02-27T00:34:34.734Z,1021.45
2023-02-27T00:35:35.053Z,1021.42
2023-02-27T00:36:35.354Z,1021.47
2023-02-27T00:37:35.707Z,1021.45
2023-02-27T00:38:35.959Z,1021.44
2023-02-27T00:39:36.325Z,1021.42
2023-02-27T00:40:36.595Z,1021.51
2023-02-27T00:41:36.884Z,1021.45
2023-02-27T00:42:37.232Z,1021.48
2023-02-27T00:43:37.494Z,1021.51
2023-02-27T00:44:37.777Z,1021.51
2023-02-27T00:45:38.111Z,1021.50
2023-02-27T00:46:38.452Z,1021.50
2023-02-27T00:47:38.662Z,1021.51
2023-02-27T00:48:38.958Z,1021.51
2023-02-27T00:49:39.263Z,1021.53
2023-02-27T00:50:39.527Z,1021.52
2023-02-27T00:51:39.824Z,1021.53
2023-02-27T00:52:40.144Z,1021.49
2023-02-27T00:53:40.462Z,1021.48
2023-02-27T00:54:40.713Z,1021.52
2023-02-27T00:55:41.012Z,1021.52
2023-02-27T00:56:41.333Z,1021.53
2023-02-27T00:57:41.674Z,1021.53
2023-02-27T00:58:41.962Z,1021.55
2023-02-27T00:59:42.246Z,1021.52
2023-02-27T01:00:42.504Z,1021.52
2023-02-27T01:01:42.831Z,1021.52
2023-02-27T01:02:43.168Z,1021.50
2023-02-27T01:03:43.434Z,1021.53
2023-02-27T01:04:43.717Z,1021.47
2023-02-27T01:05:44.094Z,1021.49
2023-02-27T01:06:44.412Z,1021.47
2023-02-27T01:07:44.736Z,1021.46
2023-02-27T01:08:45.043Z,1021.47
2023-02-27T01:09:45.332Z,1021.50
2023-02-27T01:10:45.594Z,1021.47
2023-02-27T01:11:45.866Z,1021.45
2023-02-27T01:12:46.246Z,1021.45
2023-02-27T01:13:46.420Z,1021.43
2023-02-27T01:14:46.749Z,1021.47
2023-02-27T01:15:46.954Z,1021.46
2023-02-27T01:16:47.249Z,1021.47
2023-02-27T01:17:47.515Z,1021.48
2023-02-27T01:18:47.819Z,1021.48
2023-02-27T01:19:48.133Z,1021.47
2023-02-27T01:20:48.435Z,1021.45
2023-02-27T01:21:48.698Z,1021.45
2023-02-27T01:22:49.007Z,1021.45
2023-02-27T01:23:49.270Z,1021.47
2023-02-27T01:24:49.568Z,1021.45
2023-02-27T01:25:49.869Z,1021.47
2023-02-27T01:26:50.123Z,1021.44
2023-02-27T01:27:50.426Z,1021.45
2023-02-27T01:28:50.709Z,1021.48
2023-02-27T01:29:51.041Z,1021.42
2023-02-27T01:30:51.421Z,1021.44
2023-02-27T01:31:51.628Z,1021.44
2023-02-27T01:32:51.866Z,1021.45
2023-02-27T01:33:52.186Z,1021.38
2023-02-27T01:34:52.500Z,1021.35
2023-02-27T01:35:52.818Z,1021.37
2023-02-27T01:36:53.096Z,1021.37
2023-02-27T01:37:53.395Z,1021.35
2023-02-27T01:38:53.700Z,1021.34
2023-02-27T01:39:54.027Z,1021.39
2023-02-27T01:40:54.292Z,1021.36
2023-02-27T01:41:54.607Z,1021.35
2023-02-27T01:42:54.854Z,1021.38
2023-02-27T01:43:55.241Z,1021.39
2023-02-27T01:44:55.447Z,1021.35
2023-02-27T01:45:55.798Z,1021.33
2023-02-27T01:46:56.092Z,1021.33
2023-02-27T01:47:56.389Z,1021.35
2023-02-27T01:48:56.710Z,1021.32
2023-02-27T01:49:57.016Z,1021.31
2023-02-27T01:50:57.361Z,1021.32
2023-02-27T01:51:57.656Z,1021.28
2023-02-27T01:52:57.964Z,1021.29
2023-02-27T01:53:58.254Z,1021.30
2023-02-27T01:54:58.569Z,1021.30
2023-02-27T01:55:58.845Z,1021.35
2023-02-27T01:56:59.154Z,1021.40
2023-02-27T01:57:59.434Z,1021.37
2023-02-27T01:58:59.755Z,1021.36
2023-02-27T02:00:00.038Z,1021.36
2023-02-27T02:01:00.389Z,1021.38
2023-02-27T02:02:00.751Z,1021.38
2023-02-27T02:03:00.947Z,1021.34
2023-02-27T02:04:01.241Z,1021.33
2023-02-27T02:05:01.525Z,1021.32
2023-02-27T02:06:01.840Z,1021.37
2023-02-27T02:07:02.166Z,1021.36
2023-02-27T02:08:02.478Z,1021.37
2023-02-27T02:09:02.801Z,1021.37
2023-02-27T02:10:03.138Z,1021.32
2023-02-27T02:11:03.395Z,1021.34
2023-02-27T02:12:03.692Z,1021.36
2023-02-27T02:13:03.937Z,1021.38
2023-02-27T02:14:04.281Z,1021.35
2023-02-27T02:15:04.587Z,1021.38
2023-02-27T02:16:04.875Z,1021.37
2023-02-27T02:17:05.199Z,1021.39
2023-02-27T02:18:05.507Z,1021.40
2023-02-27T02:19:05.775Z,1021.38
2023-02-27T02:20:06.034Z,1021.39
2023-02-27T02:21:06.809Z,1021.37
2023-02-27T02:22:06.740Z,1021.43
2023-02-27T02:23:07.025Z,1021.40
2023-02-27T02:24:07.330Z,1021.42
2023-02-27T02:25:07.618Z,1021.38
2023-02-27T02:26:07.890Z,1021.44
2023-02-27T02:27:08.192Z,1021.40
2023-02-27T02:28:08.474Z,1021.46
2023-02-27T02:29:08.761Z,1021.47
2023-02-27T02:30:09.094Z,1021.50
2023-02-27T02:31:09.512Z,1021.49
2023-02-27T02:32:09.651Z,1021.50
2023-02-27T02:33:09.912Z,1021.45
2023-02-27T02:34:10.198Z,1021.48
2023-02-27T02:35:10.477Z,1021.48
2023-02-27T02:36:10.804Z,1021.50
2023-02-27T02:37:11.039Z,1021.48
2023-02-27T02:38:11.345Z,1021.52
2023-02-27T02:39:11.632Z,1021.48
2023-02-27T02:40:11.919Z,1021.48
2023-02-27T02:41:12.153Z,1021.55
2023-02-27T02:42:12.506Z,1021.48
2023-02-27T02:43:12.787Z,1021.54
2023-02-27T02:44:13.094Z,1021.48
2023-02-27T02:45:13.370Z,1021.48
2023-02-27T02:46:13.707Z,1021.50
2023-02-27T02:47:14.018Z,1021.50
2023-02-27T02:48:14.287Z,1021.51
2023-02-27T02:49:14.592Z,1021.52
2023-02-27T02:50:14.879Z,1021.50
2023-02-27T02:51:15.169Z,1021.53
2023-02-27T02:52:15.451Z,1021.55
2023-02-27T02:53:15.729Z,1021.54
2023-02-27T02:54:16.044Z,1021.50
2023-02-27T02:55:16.314Z,1021.54
2023-02-27T02:56:16.648Z,1021.50
2023-02-27T02:57:16.893Z,1021.50
2023-02-27T02:58:17.285Z,1021.54
2023-02-27T02:59:17.585Z,1021.55
2023-02-27T03:00:17.901Z,1021.53
2023-02-27T03:01:18.248Z,1021.55
2023-02-27T03:02:18.543Z,1021.56
2023-02-27T03:03:18.860Z,1021.57
2023-02-27T03:04:19.190Z,1021.58
2023-02-27T03:05:19.518Z,1021.56
2023-02-27T03:06:19.811Z,1021.56
2023-02-27T03:07:20.151Z,1021.59
2023-02-27T03:08:20.313Z,1021.57
2023-02-27T03:09:20.617Z,1021.53
2023-02-27T03:10:20.909Z,1021.53
2023-02-27T03:11:21.272Z,1021.59
2023-02-27T03:12:21.477Z,1021.58
2023-02-27T03:13:21.793Z,1021.59
2023-02-27T03:14:22.084Z,1021.56
2023-02-27T03:15:22.381Z,1021.57
2023-02-27T03:16:22.701Z,1021.55
2023-02-27T03:17:22.990Z,1021.55
2023-02-27T03:18:23.244Z,1021.59
2023-02-27T03:19:23.552Z,1021.54
2023-02-27T03:20:23.905Z,1021.57
2023-02-27T03:21:24.295Z,1021.62
2023-02-27T03:22:24.489Z,1021.65
2023-02-27T03:23:24.854Z,1021.64
2023-02-27T03:24:25.136Z,1021.67
2023-02-27T03:25:25.415Z,1021.67
2023-02-27T03:26:25.727Z,1021.67
2023-02-27T03:27:25.988Z,1021.66
2023-02-27T03:28:26.336Z,1021.69
2023-02-27T03:29:26.628Z,1021.72
2023-02-27T03:30:27.175Z,1021.71
2023-02-27T03:31:27.738Z,1021.73
2023-02-27T03:32:27.612Z,1021.75
2023-02-27T03:33:27.811Z,1021.74
2023-02-27T03:34:28.084Z,1021.76
2023-02-27T03:35:28.414Z,1021.73
2023-02-27T03:36:28.702Z,1021.76
2023-02-27T03:37:28.998Z,1021.79
2023-02-27T03:38:29.309Z,1021.78
2023-02-27T03:39:29.640Z,1021.84
2023-02-27T03:40:29.959Z,1021.81
2023-02-27T03:41:30.280Z,1021.81
2023-02-27T03:42:30.559Z,1021.77
2023-02-27T03:43:30.850Z,1021.75
2023-02-27T03:44:31.160Z,1021.70
2023-02-27T03:45:31.473Z,1021.71
2023-02-27T03:46:31.880Z,1021.75
2023-02-27T03:47:32.065Z,1021.78
2023-02-27T03:48:32.387Z,1021.77
2023-02-27T03:49:32.678Z,1021.77
2023-02-27T03:50:33.009Z,1021.77
2023-02-27T03:51:33.283Z,1021.78
2023-02-27T03:52:33.586Z,1021.78
2023-02-27T03:53:33.902Z,1021.83
2023-02-27T03:54:34.161Z,1021.80
2023-02-27T03:55:34.562Z,1021.81
2023-02-27T03:56:34.841Z,1021.80
2023-02-27T03:57:35.192Z,1021.79
2023-02-27T03:58:35.533Z,1021.85
2023-02-27T03:59:35.850Z,1021.82
2023-02-27T04:00:36.174Z,1021.83
2023-02-27T04:01:36.523Z,1021.84
2023-02-27T04:02:36.849Z,1021.81
2023-02-27T04:03:37.149Z,1021.87
2023-02-27T04:04:37.397Z,1021.85
2023-02-27T04:05:37.782Z,1021.84
2023-02-27T04:06:39.187Z,1021.87
2023-02-27T04:07:38.326Z,1021.90
2023-02-27T04:08:38.639Z,1021.89
2023-02-27T04:09:38.903Z,1021.90
2023-02-27T04:10:39.643Z,1021.92
2023-02-27T04:11:39.475Z,1021.92
2023-02-27T04:12:39.806Z,1021.93
2023-02-27T04:13:40.118Z,1021.89
2023-02-27T04:14:40.439Z,1021.92
2023-02-27T04:15:40.708Z,1021.91
2023-02-27T04:16:41.020Z,1021.91
2023-02-27T04:17:41.340Z,1021.91
2023-02-27T04:18:41.712Z,1021.91
2023-02-27T04:19:41.928Z,1021.95
2023-02-27T04:20:42.233Z,1021.93
2023-02-27T04:21:42.559Z,1021.92
2023-02-27T04:22:42.892Z,1021.93
2023-02-27T04:23:43.167Z,1021.91
2023-02-27T04:24:43.457Z,1021.92
2023-02-27T04:25:43.762Z,1021.95
2023-02-27T04:26:44.076Z,1021.95
2023-02-27T04:27:44.411Z,1021.96
2023-02-27T04:28:44.726Z,1021.92
2023-02-27T04:29:45.049Z,1021.95
2023-02-27T04:30:45.413Z,1021.97
2023-02-27T04:31:45.745Z,1021.96
2023-02-27T04:32:45.998Z,1021.99
2023-02-27T04:33:46.165Z,1021.98
2023-02-27T04:34:46.452Z,1022.03
2023-02-27T04:35:46.793Z,1022.02
2023-02-27T04:36:47.171Z,1022.05
2023-02-27T04:37:47.363Z,1022.06
2023-02-27T04:38:47.686Z,1022.08
2023-02-27T04:39:47.997Z,1022.07
2023-02-27T04:40:48.301Z,1022.09
2023-02-27T04:41:48.628Z,1022.05
2023-02-27T04:42:48.939Z,1022.03
2023-02-27T04:43:49.199Z,1022.05
2023-02-27T04:44:49.550Z,1022.07
2023-02-27T04:45:49.835Z,1022.07
2023-02-27T04:46:50.152Z,1022.07
2023-02-27T04:47:50.447Z,1022.05
2023-02-27T04:48:50.727Z,1022.06
2023-02-27T04:49:51.020Z,1022.10
2023-02-27T04:50:51.342Z,1022.08
2023-02-27T04:51:51.656Z,1022.07
2023-02-27T04:52:51.988Z,1022.10
2023-02-27T04:53:52.266Z,1022.14
2023-02-27T04:54:52.569Z,1022.11
2023-02-27T04:55:52.852Z,1022.12
2023-02-27T04:56:53.162Z,1022.13
2023-02-27T04:57:53.463Z,1022.17
2023-02-27T04:58:53.845Z,1022.20
2023-02-27T04:59:54.058Z,1022.22
2023-02-27T05:00:54.413Z,1022.25
2023-02-27T05:01:54.756Z,1022.18
2023-02-27T05:02:54.984Z,1022.22
2023-02-27T05:03:55.284Z,1022.23
2023-02-27T05:04:55.524Z,1022.23
2023-02-27T05:05:55.822Z,1022.20
2023-02-27T05:06:56.177Z,1022.20
2023-02-27T05:07:56.485Z,1022.23
2023-02-27T05:08:56.832Z,1022.25
2023-02-27T05:09:57.115Z,1022.28
2023-02-27T05:10:57.434Z,1022.24
2023-02-27T05:11:57.772Z,1022.27
2023-02-27T05:12:58.058Z,1022.28
2023-02-27T05:13:58.377Z,1022.28
2023-02-27T05:14:58.682Z,1022.30
2023-02-27T05:15:59.090Z,1022.30
2023-02-27T05:16:59.302Z,1022.31
2023-02-27T05:17:59.668Z,1022.34
2023-02-27T05:18:59.877Z,1022.37
2023-02-27T05:20:00.226Z,1022.39
2023-02-27T05:21:00.540Z,1022.37
2023-02-27T05:22:00.870Z,1022.35
2023-02-27T05:23:01.209Z,1022.37
2023-02-27T05:24:01.523Z,1022.36
2023-02-27T05:25:01.836Z,1022.34
2023-02-27T05:26:02.176Z,1022.39
2023-02-27T05:27:02.463Z,1022.37
2023-02-27T05:28:02.773Z,1022.39
2023-02-27T05:29:03.089Z,1022.42
2023-02-27T05:30:03.400Z,1022.42
2023-02-27T05:31:03.773Z,1022.41
2023-02-27T05:32:04.075Z,1022.39
2023-02-27T05:33:04.325Z,1022.42
2023-02-27T05:34:04.542Z,1022.41
2023-02-27T05:35:04.822Z,1022.39
2023-02-27T05:36:05.268Z,1022.41
2023-02-27T05:37:05.517Z,1022.40
2023-02-27T05:38:05.651Z,1022.42
2023-02-27T05:39:06.022Z,1022.43
2023-02-27T05:40:06.324Z,1022.46
2023-02-27T05:41:08.391Z,1022.44
2023-02-27T05:42:06.879Z,1022.46
2023-02-27T05:43:07.156Z,1022.46
2023-02-27T05:44:07.485Z,1022.46
2023-02-27T05:45:07.806Z,1022.44
2023-02-27T05:46:08.174Z,1022.47
2023-02-27T05:47:08.428Z,1022.49
2023-02-27T05:48:08.946Z,1022.50
2023-02-27T05:49:09.110Z,1022.49
2023-02-27T05:50:09.429Z,1022.49
2023-02-27T05:51:09.771Z,1022.50
2023-02-27T05:52:09.984Z,1022.50
2023-02-27T05:53:10.289Z,1022.53
2023-02-27T05:54:10.605Z,1022.58
2023-02-27T05:55:10.925Z,1022.50
2023-02-27T05:56:11.259Z,1022.47
2023-02-27T05:57:11.639Z,1022.50
2023-02-27T05:58:11.821Z,1022.50
2023-02-27T05:59:12.101Z,1022.52
2023-02-27T06:00:12.433Z,1022.49
2023-02-27T06:01:12.802Z,1022.49
2023-02-27T06:02:13.228Z,1022.52
2023-02-27T06:03:13.421Z,1022.51
2023-02-27T06:04:13.720Z,1022.52
2023-02-27T06:05:14.174Z,1022.48
2023-02-27T06:06:14.388Z,1022.48
2023-02-27T06:07:14.752Z,1022.55
2023-02-27T06:08:14.946Z,1022.49
2023-02-27T06:09:15.133Z,1022.52
2023-02-27T06:10:15.527Z,1022.57
2023-02-27T06:11:16.066Z,1022.48
2023-02-27T06:12:16.150Z,1022.52
2023-02-27T06:13:16.355Z,1022.50
2023-02-27T06:14:16.664Z,1022.56
2023-02-27T06:15:24.258Z,1022.50
2023-02-27T06:16:19.835Z,1022.56
2023-02-27T06:17:17.448Z,1022.56
2023-02-27T06:18:17.779Z,1022.59
2023-02-27T06:19:18.072Z,1022.62
2023-02-27T06:20:18.314Z,1022.60
2023-02-27T06:21:18.690Z,1022.63
2023-02-27T06:22:19.032Z,1022.62
2023-02-27T06:23:19.356Z,1022.66
2023-02-27T06:24:21.902Z,1022.67
2023-02-27T06:25:19.952Z,1022.66
2023-02-27T06:26:20.270Z,1022.70
2023-02-27T06:27:20.452Z,1022.75
2023-02-27T06:28:20.661Z,1022.79
2023-02-27T06:29:20.990Z,1022.75
2023-02-27T06:30:21.304Z,1022.79
2023-02-27T06:31:21.586Z,1022.84
2023-02-27T06:32:21.792Z,1022.80
2023-02-27T06:33:22.115Z,1022.86
2023-02-27T06:34:22.436Z,1022.83
2023-02-27T06:35:22.727Z,1022.82
2023-02-27T06:36:23.165Z,1022.80
2023-02-27T06:37:23.346Z,1022.86
2023-02-27T06:38:23.661Z,1022.79
2023-02-27T06:39:24.027Z,1022.83
2023-02-27T06:40:24.358Z,1022.81
2023-02-27T06:41:24.665Z,1022.78
2023-02-27T06:42:24.962Z,1022.82
2023-02-27T06:43:25.332Z,1022.81
2023-02-27T06:44:25.644Z,1022.85
2023-02-27T06:45:26.012Z,1022.78
2023-02-27T06:46:26.804Z,1022.81
2023-02-27T06:47:26.679Z,1022.86
2023-02-27T06:48:27.010Z,1022.86
2023-02-27T06:49:27.294Z,1022.82
2023-02-27T06:50:27.687Z,1022.84
2023-02-27T06:51:27.952Z,1022.86
2023-02-27T06:52:28.299Z,1022.88
2023-02-27T06:53:28.630Z,1022.90
2023-02-27T06:54:28.940Z,1022.90
2023-02-27T06:55:29.153Z,1022.92
2023-02-27T06:56:29.666Z,1022.92
2023-02-27T06:57:29.762Z,1022.95
2023-02-27T06:58:29.973Z,1022.94
2023-02-27T06:59:30.232Z,1022.90
2023-02-27T07:00:30.658Z,1022.93
2023-02-27T07:01:30.892Z,1022.92
2023-02-27T07:02:31.108Z,1022.95
2023-02-27T07:03:31.432Z,1022.93
2023-02-27T07:04:31.704Z,1022.90
2023-02-27T07:05:31.895Z,1022.94
2023-02-27T07:07:35.072Z,1022.96
2023-02-27T07:07:37.862Z,1022.94
2023-02-27T07:08:32.699Z,1022.97
2023-02-27T07:09:33.000Z,1023.01
2023-02-27T07:10:33.232Z,1022.98
2023-02-27T07:11:33.574Z,1023.00
2023-02-27T07:12:33.830Z,1022.95
2023-02-27T07:13:34.139Z,1022.98
2023-02-27T07:14:34.449Z,1022.95
2023-02-27T07:15:34.842Z,1022.95
2023-02-27T07:16:35.149Z,1022.99
2023-02-27T07:17:35.490Z,1023.01
2023-02-27T07:18:35.829Z,1022.94
2023-02-27T07:19:36.126Z,1022.94
2023-02-27T07:20:36.501Z,1023.00
2023-02-27T07:21:36.784Z,1022.98
2023-02-27T07:22:37.163Z,1022.98
2023-02-27T07:23:37.452Z,1022.97
2023-02-27T07:24:37.798Z,1022.94
2023-02-27T07:25:38.177Z,1022.95
2023-02-27T07:26:38.498Z,1022.96
2023-02-27T07:27:38.802Z,1022.92
2023-02-27T07:28:39.200Z,1022.89
2023-02-27T07:29:39.453Z,1022.85
2023-02-27T07:30:39.842Z,1022.90
2023-02-27T07:31:40.142Z,1022.92
2023-02-27T07:32:40.411Z,1022.88
2023-02-27T07:33:40.612Z,1022.94
2023-02-27T07:34:40.832Z,1022.88
2023-02-27T07:35:41.121Z,1022.97
2023-02-27T07:36:41.406Z,1022.98
2023-02-27T07:37:41.689Z,1022.94
2023-02-27T07:38:41.891Z,1022.96
2023-02-27T07:39:42.141Z,1023.01
2023-02-27T07:40:42.464Z,1022.99
2023-02-27T07:41:42.816Z,1022.98
2023-02-27T07:42:43.101Z,1023.00
2023-02-27T07:43:43.270Z,1023.00
2023-02-27T07:44:43.534Z,1022.97
2023-02-27T07:45:43.862Z,1023.03
2023-02-27T07:46:44.279Z,1023.04
2023-02-27T07:47:44.474Z,1023.00
2023-02-27T07:48:44.777Z,1023.07
2023-02-27T07:49:45.128Z,1023.08
2023-02-27T07:50:45.374Z,1023.09
2023-02-27T07:51:45.683Z,1023.08
2023-02-27T07:52:46.034Z,1023.08
2023-02-27T07:53:46.382Z,1023.09
2023-02-27T07:54:46.714Z,1023.07
2023-02-27T07:55:47.048Z,1023.10
2023-02-27T07:56:47.355Z,1023.09
2023-02-27T07:57:47.717Z,1023.11
2023-02-27T07:58:47.895Z,1023.16
2023-02-27T07:59:48.196Z,1023.18
2023-02-27T08:00:48.538Z,1023.20
2023-02-27T08:01:48.898Z,1023.17
2023-02-27T08:02:49.110Z,1023.14
2023-02-27T08:03:49.464Z,1023.21
2023-02-27T08:04:49.747Z,1023.21
2023-02-27T08:05:49.965Z,1023.20
2023-02-27T08:06:50.287Z,1023.26
2023-02-27T08:07:50.568Z,1023.30
2023-02-27T08:08:50.914Z,1023.28
2023-02-27T08:09:51.251Z,1023.32
2023-02-27T08:10:51.560Z,1023.34
2023-02-27T08:11:51.847Z,1023.29
2023-02-27T08:12:52.199Z,1023.32
2023-02-27T08:14:01.503Z,1023.37
2023-02-27T08:14:53.748Z,1023.31
2023-02-27T08:15:53.134Z,1023.32
2023-02-27T08:16:53.411Z,1023.34
2023-02-27T08:17:53.767Z,1023.33
2023-02-27T08:18:54.072Z,1023.35
2023-02-27T08:19:54.409Z,1023.37
2023-02-27T08:20:54.748Z,1023.37
2023-02-27T08:21:55.046Z,1023.35
2023-02-27T08:22:55.353Z,1023.31
2023-02-27T08:23:55.678Z,1023.34
2023-02-27T08:24:55.976Z,1023.39
2023-02-27T08:25:56.288Z,1023.34
2023-02-27T08:26:56.616Z,1023.35
2023-02-27T08:27:56.913Z,1023.39
2023-02-27T08:28:57.273Z,1023.38
2023-02-27T08:29:57.547Z,1023.35
2023-02-27T08:30:57.906Z,1023.41
2023-02-27T08:31:58.305Z,1023.39
2023-02-27T08:32:58.533Z,1023.37
2023-02-27T08:34:09.504Z,1023.38
2023-02-27T08:35:01.015Z,1023.36
2023-02-27T08:35:59.436Z,1023.39
2023-02-27T08:36:59.632Z,1023.34
2023-02-27T08:37:59.932Z,1023.33
2023-02-27T08:39:00.242Z,1023.33
2023-02-27T08:40:00.546Z,1023.33
2023-02-27T08:41:00.835Z,1023.37
2023-02-27T08:42:01.170Z,1023.38
2023-02-27T08:43:01.444Z,1023.40
2023-02-27T08:44:01.781Z,1023.42
2023-02-27T08:45:02.125Z,1023.39
2023-02-27T08:46:02.455Z,1023.40
2023-02-27T08:47:02.720Z,1023.40
2023-02-27T08:48:03.033Z,1023.38
2023-02-27T08:49:03.331Z,1023.43
2023-02-27T08:50:03.711Z,1023.40
2023-02-27T08:51:03.990Z,1023.43
2023-02-27T08:52:04.320Z,1023.36
2023-02-27T08:53:04.603Z,1023.37
2023-02-27T08:54:04.956Z,1023.37
2023-02-27T08:55:05.236Z,1023.35
2023-02-27T08:56:05.563Z,1023.34
2023-02-27T08:57:05.922Z,1023.41
2023-02-27T08:58:06.218Z,1023.38
2023-02-27T08:59:06.538Z,1023.40
2023-02-27T09:00:06.876Z,1023.35
2023-02-27T09:01:07.230Z,1023.35
2023-02-27T09:02:07.409Z,1023.38
2023-02-27T09:03:07.720Z,1023.36
2023-02-27T09:04:08.018Z,1023.40
2023-02-27T09:05:08.333Z,1023.40
2023-02-27T09:06:08.625Z,1023.42
2023-02-27T09:07:08.932Z,1023.42
2023-02-27T09:08:09.237Z,1023.39
2023-02-27T09:09:09.534Z,1023.42
2023-02-27T09:10:09.845Z,1023.43
2023-02-27T09:11:10.211Z,1023.46
2023-02-27T09:12:10.526Z,1023.46
2023-02-27T09:13:10.846Z,1023.44
2023-02-27T09:14:11.172Z,1023.46
2023-02-27T09:15:11.446Z,1023.50
2023-02-27T09:16:11.807Z,1023.45
2023-02-27T09:17:12.153Z,1023.50
2023-02-27T09:18:12.452Z,1023.46
2023-02-27T09:19:12.782Z,1023.40
2023-02-27T09:20:13.086Z,1023.42
2023-02-27T09:21:13.375Z,1023.42
2023-02-27T09:22:13.741Z,1023.47
2023-02-27T09:23:14.052Z,1023.40
2023-02-27T09:24:20.080Z,1023.40
2023-02-27T09:25:15.615Z,1023.43
2023-02-27T09:26:14.944Z,1023.43
2023-02-27T09:27:15.310Z,1023.49
2023-02-27T09:28:15.577Z,1023.49
2023-02-27T09:29:15.931Z,1023.50
2023-02-27T09:30:16.223Z,1023.48
2023-02-27T09:31:16.599Z,1023.43
2023-02-27T09:32:17.036Z,1023.52
2023-02-27T09:33:17.243Z,1023.48
2023-02-27T09:34:17.567Z,1023.51
2023-02-27T09:35:17.889Z,1023.53
2023-02-27T09:36:18.164Z,1023.53
2023-02-27T09:37:18.515Z,1023.50
2023-02-27T09:38:18.832Z,1023.47
2023-02-27T09:39:19.183Z,1023.47
2023-02-27T09:40:19.480Z,1023.48
2023-02-27T09:41:19.834Z,1023.50
2023-02-27T09:42:20.130Z,1023.46
2023-02-27T09:43:20.436Z,1023.49
2023-02-27T09:44:27.954Z,1023.48
2023-02-27T09:45:22.015Z,1023.45
2023-02-27T09:46:21.413Z,1023.48
2023-02-27T09:47:21.612Z,1023.45
2023-02-27T09:48:21.898Z,1023.43
2023-02-27T09:49:22.224Z,1023.45
2023-02-27T09:50:22.543Z,1023.46
2023-02-27T09:51:22.912Z,1023.47
2023-02-27T09:52:23.217Z,1023.51
2023-02-27T09:53:23.503Z,1023.52
2023-02-27T09:54:23.852Z,1023.52
2023-02-27T09:55:24.161Z,1023.45
2023-02-27T09:56:24.664Z,1023.47
2023-02-27T09:57:24.674Z,1023.51
2023-02-27T09:58:24.975Z,1023.51
2023-02-27T09:59:25.297Z,1023.56
2023-02-27T10:00:25.623Z,1023.52
2023-02-27T10:01:26.079Z,1023.52
2023-02-27T10:02:26.160Z,1023.53
2023-02-27T10:03:26.477Z,1023.53
2023-02-27T10:04:26.860Z,1023.49
2023-02-27T10:05:27.034Z,1023.52
2023-02-27T10:06:27.646Z,1023.50
2023-02-27T10:07:27.683Z,1023.50
2023-02-27T10:08:28.013Z,1023.47
2023-02-27T10:09:28.354Z,1023.45
2023-02-27T10:10:28.641Z,1023.48
2023-02-27T10:11:28.984Z,1023.46
2023-02-27T10:12:29.355Z,1023.47
2023-02-27T10:13:29.664Z,1023.49
2023-02-27T10:14:29.947Z,1023.46
2023-02-27T10:15:30.255Z,1023.49
2023-02-27T10:16:31.036Z,1023.42
2023-02-27T10:17:30.874Z,1023.43
2023-02-27T10:18:31.224Z,1023.44
2023-02-27T10:19:31.396Z,1023.44
2023-02-27T10:20:31.728Z,1023.48
2023-02-27T10:21:32.419Z,1023.47
2023-02-27T10:22:32.297Z,1023.46
2023-02-27T10:23:32.666Z,1023.47
2023-02-27T10:24:32.963Z,1023.49
2023-02-27T10:25:33.314Z,1023.46
2023-02-27T10:26:33.635Z,1023.46
2023-02-27T10:27:33.951Z,1023.44
2023-02-27T10:28:34.231Z,1023.44
2023-02-27T10:29:34.566Z,1023.43
2023-02-27T10:30:35.373Z,1023.41
2023-02-27T10:31:35.250Z,1023.40
2023-02-27T10:32:35.436Z,1023.43
2023-02-27T10:33:35.753Z,1023.37
2023-02-27T10:34:36.038Z,1023.47
2023-02-27T10:35:36.356Z,1023.43
2023-02-27T10:36:36.758Z,1023.38
2023-02-27T10:37:36.927Z,1023.38
2023-02-27T10:38:37.246Z,1023.38
2023-02-27T10:39:37.537Z,1023.37
2023-02-27T10:40:37.855Z,1023.43
2023-02-27T10:41:38.167Z,1023.45
2023-02-27T10:42:41.331Z,1023.43
2023-02-27T10:43:38.708Z,1023.41
2023-02-27T10:44:39.037Z,1023.43
2023-02-27T10:45:39.356Z,1023.36
2023-02-27T10:46:39.740Z,1023.41
2023-02-27T10:47:39.883Z,1023.44
2023-02-27T10:48:40.205Z,1023.32
2023-02-27T10:49:40.522Z,1023.34
2023-02-27T10:50:40.815Z,1023.30
2023-02-27T10:51:41.127Z,1023.30
2023-02-27T10:52:43.169Z,1023.28
2023-02-27T10:53:41.671Z,1023.27
2023-02-27T10:54:41.992Z,1023.30
2023-02-27T10:55:42.310Z,1023.28
2023-02-27T10:56:42.669Z,1023.25
2023-02-27T10:57:43.005Z,1023.27
2023-02-27T10:58:43.262Z,1023.28
2023-02-27T10:59:43.618Z,1023.28
2023-02-27T11:00:43.925Z,1023.27
2023-02-27T11:01:44.239Z,1023.23
2023-02-27T11:02:44.562Z,1023.24
2023-02-27T11:03:44.845Z,1023.23
2023-02-27T11:04:45.234Z,1023.19
2023-02-27T11:05:45.492Z,1023.16
2023-02-27T11:06:45.811Z,1023.16
2023-02-27T11:07:46.211Z,1023.16
2023-02-27T11:08:46.453Z,1023.10
2023-02-27T11:09:46.803Z,1023.05
2023-02-27T11:10:47.096Z,1023.07
2023-02-27T11:11:47.465Z,1023.06
2023-02-27T11:12:47.666Z,1023.04
2023-02-27T11:13:47.951Z,1023.03
2023-02-27T11:14:48.297Z,1023.03
2023-02-27T11:15:48.674Z,1022.90
2023-02-27T11:16:48.977Z,1022.90
2023-02-27T11:17:49.288Z,1022.94
2023-02-27T11:18:49.638Z,1022.97
2023-02-27T11:19:49.884Z,1022.93
2023-02-27T11:20:50.207Z,1022.96
2023-02-27T11:21:50.583Z,1022.94
2023-02-27T11:22:50.868Z,1022.92
2023-02-27T11:23:51.189Z,1022.93
2023-02-27T11:24:51.501Z,1022.91
2023-02-27T11:25:51.782Z,1022.90
2023-02-27T11:26:52.125Z,1022.88
2023-02-27T11:27:52.447Z,1022.80
2023-02-27T11:28:52.731Z,1022.83
2023-02-27T11:29:53.029Z,1022.79
2023-02-27T11:30:53.326Z,1022.78
2023-02-27T11:31:53.739Z,1022.77
2023-02-27T11:32:53.927Z,1022.70
2023-02-27T11:33:54.280Z,1022.67
2023-02-27T11:34:54.582Z,1022.68
2023-02-27T11:35:57.225Z,1022.67
2023-02-27T11:36:55.267Z,1022.62
2023-02-27T11:37:55.589Z,1022.59
2023-02-27T11:38:55.883Z,1022.63
2023-02-27T11:39:56.160Z,1022.62
2023-02-27T11:40:56.496Z,1022.63
2023-02-27T11:41:56.813Z,1022.66
2023-02-27T11:42:57.157Z,1022.59
2023-02-27T11:43:57.489Z,1022.58
2023-02-27T11:44:57.789Z,1022.63
2023-02-27T11:46:13.870Z,1022.58
2023-02-27T11:46:59.446Z,1022.62
2023-02-27T11:48:01.001Z,1022.60
2023-02-27T11:48:58.921Z,1022.54
2023-02-27T11:49:59.293Z,1022.60
2023-02-27T11:50:59.588Z,1022.47
2023-02-27T11:51:59.933Z,1022.41
2023-02-27T11:53:00.265Z,1022.42
2023-02-27T11:54:00.571Z,1022.36
2023-02-27T11:55:00.864Z,1022.33
2023-02-27T11:56:01.138Z,1022.37
2023-02-27T11:57:01.460Z,1022.35
2023-02-27T11:58:01.828Z,1022.36
2023-02-27T11:59:02.097Z,1022.38
2023-02-27T12:00:02.420Z,1022.34
2023-02-27T12:01:02.756Z,1022.23
2023-02-27T12:02:03.087Z,1022.25
2023-02-27T12:03:03.428Z,1022.22
2023-02-27T12:04:03.792Z,1022.17
2023-02-27T12:05:03.984Z,1022.20
2023-02-27T12:06:04.274Z,1022.18
2023-02-27T12:07:04.570Z,1022.21
2023-02-27T12:08:04.916Z,1022.18
2023-02-27T12:09:05.195Z,1022.18